메인 페이지
METAR-TAF:

METAR-TAF

공항 :

벤구리온 국제공항

텔아비브 / 벤구리온, 이스라엘

위도: 32-00N, 경도: 034-54E, 고도: 40m

현재 날씨관측

예보는 9분 전, 15:20시(UTC)에 발표되었습니다.
북동4kt
온도 20°C
습도 64%
기압 1013 hPa
시정 10km 이상
1500m 미만 상공 구름 및 적란운 없음

METAR: LLBG 111520Z 04004KT CAVOK 20/13 Q1013 NOSIG

시각: 17:29 (15:29 UTC)

예보

예보는 4 시간 16분 전, 11:13시(UTC)에 발표되었습니다.
예보 대상 시간: 11일 12시부터 12일 12시까지 (UTC)
서남서8kt
시정 10km 이상
1500m 미만 상공 구름 및 적란운 없음
전환 중
11일 14시부터 11일 16시까지 (UTC)
여러 방향의 바람 3kt
전환 중
11일 20시부터 11일 22시까지 (UTC)
남남동5kt
전환 중
12일 07시부터 12일 09시까지 (UTC)
남서10kt
시정 10km 이상
고도 10000ft 상공 구름 보통
확률 40%
12일 11시부터 12일 12시까지 (UTC)
서남서15kt, 순간 최대 풍속 25kt
시정: 6000m
고도 3000ft 상공 구름 조금, 적란운.
고도 8000ft 상공 구름 많음
뇌우, 비

TAF: LLBG 111113Z 1112/1212 25008KT CAVOK BECMG 1114/1116 VRB03KT BECMG 1120/1122 15005KT BECMG 1207/1209 22010KT 9999 SCT100 PROB40 1211/1212 24015G25KT 6000 TSRA FEW030CB BKN080 TX23/1112Z TN12/1204Z

4,000개 이상의 공항 관측 자료 및 예보 (METAR 및 TAF 보고).

지도상에서 검색 가능한 기상관측소가 노란 점과 빨간 점으로 표시되어 있습니다.

기상관측소 명을 보려면 표시 위로 마우스를 이동하세요.

날씨 관측과 예보를 보려면 클릭하세요.

지도 변경 : 확대하려면 엑스 표시가 있는 녹색 버튼, 축소하려면 빼기 표시가 있는 녹색 버튼, 다음 페이지의 지도를 보려면 녹색 화살표를 클릭하세요.


METAR-TAF: